sensor_id;sensor_type;location;lat;lon;timestamp;P1;durP1;ratioP1;P2;durP2;ratioP2
8622;SDS011;4349;47.552;8.904;2023-05-16T00:01:43;6.03;;;5.63;;
8622;SDS011;4349;47.552;8.904;2023-05-16T00:04:10;5.67;;;5.17;;
8622;SDS011;4349;47.552;8.904;2023-05-16T00:06:38;6.23;;;5.83;;
8622;SDS011;4349;47.552;8.904;2023-05-16T00:09:06;6.70;;;6.23;;
8622;SDS011;4349;47.552;8.904;2023-05-16T00:11:35;6.90;;;6.43;;
8622;SDS011;4349;47.552;8.904;2023-05-16T00:14:02;6.30;;;5.90;;
8622;SDS011;4349;47.552;8.904;2023-05-16T00:16:30;6.17;;;5.77;;
8622;SDS011;4349;47.552;8.904;2023-05-16T00:18:58;6.47;;;5.87;;
8622;SDS011;4349;47.552;8.904;2023-05-16T00:21:26;6.97;;;6.37;;
8622;SDS011;4349;47.552;8.904;2023-05-16T00:23:53;6.20;;;5.70;;
8622;SDS011;4349;47.552;8.904;2023-05-16T00:26:21;6.23;;;5.73;;
8622;SDS011;4349;47.552;8.904;2023-05-16T00:28:49;6.50;;;5.87;;
8622;SDS011;4349;47.552;8.904;2023-05-16T00:31:17;6.57;;;6.07;;
8622;SDS011;4349;47.552;8.904;2023-05-16T00:33:44;6.67;;;6.07;;
8622;SDS011;4349;47.552;8.904;2023-05-16T00:36:12;6.40;;;6.00;;
8622;SDS011;4349;47.552;8.904;2023-05-16T00:38:39;6.13;;;5.73;;
8622;SDS011;4349;47.552;8.904;2023-05-16T00:41:06;6.77;;;6.27;;
8622;SDS011;4349;47.552;8.904;2023-05-16T00:43:35;6.53;;;5.93;;
8622;SDS011;4349;47.552;8.904;2023-05-16T00:46:04;6.70;;;6.20;;
8622;SDS011;4349;47.552;8.904;2023-05-16T00:48:33;7.07;;;6.47;;
8622;SDS011;4349;47.552;8.904;2023-05-16T00:51:01;6.87;;;6.37;;
8622;SDS011;4349;47.552;8.904;2023-05-16T00:53:29;6.20;;;5.73;;
8622;SDS011;4349;47.552;8.904;2023-05-16T00:55:56;6.53;;;6.03;;
8622;SDS011;4349;47.552;8.904;2023-05-16T00:58:24;6.10;;;5.70;;
8622;SDS011;4349;47.552;8.904;2023-05-16T01:00:51;5.80;;;5.50;;
8622;SDS011;4349;47.552;8.904;2023-05-16T01:03:23;6.47;;;6.07;;
8622;SDS011;4349;47.552;8.904;2023-05-16T01:05:51;6.40;;;6.00;;
8622;SDS011;4349;47.552;8.904;2023-05-16T01:08:18;5.60;;;5.20;;
8622;SDS011;4349;47.552;8.904;2023-05-16T01:10:49;6.57;;;6.07;;
8622;SDS011;4349;47.552;8.904;2023-05-16T01:13:21;6.30;;;5.90;;
8622;SDS011;4349;47.552;8.904;2023-05-16T01:15:53;6.37;;;5.87;;
8622;SDS011;4349;47.552;8.904;2023-05-16T01:18:38;6.63;;;6.23;;
8622;SDS011;4349;47.552;8.904;2023-05-16T01:21:09;6.97;;;6.50;;
8622;SDS011;4349;47.552;8.904;2023-05-16T01:23:40;7.63;;;6.90;;
8622;SDS011;4349;47.552;8.904;2023-05-16T01:26:13;6.57;;;6.17;;
8622;SDS011;4349;47.552;8.904;2023-05-16T01:28:41;6.67;;;6.27;;
8622;SDS011;4349;47.552;8.904;2023-05-16T01:31:10;6.93;;;6.23;;
8622;SDS011;4349;47.552;8.904;2023-05-16T01:33:38;7.17;;;6.67;;
8622;SDS011;4349;47.552;8.904;2023-05-16T01:36:07;7.17;;;6.67;;
8622;SDS011;4349;47.552;8.904;2023-05-16T01:38:38;7.00;;;6.50;;
8622;SDS011;4349;47.552;8.904;2023-05-16T01:41:12;7.27;;;6.63;;
8622;SDS011;4349;47.552;8.904;2023-05-16T01:43:43;7.67;;;7.00;;
8622;SDS011;4349;47.552;8.904;2023-05-16T01:46:11;7.57;;;7.07;;
8622;SDS011;4349;47.552;8.904;2023-05-16T01:48:42;7.80;;;7.17;;
8622;SDS011;4349;47.552;8.904;2023-05-16T01:51:10;7.50;;;7.00;;
8622;SDS011;4349;47.552;8.904;2023-05-16T01:53:39;6.93;;;6.53;;
8622;SDS011;4349;47.552;8.904;2023-05-16T01:56:08;8.30;;;7.70;;
8622;SDS011;4349;47.552;8.904;2023-05-16T01:58:36;7.73;;;7.10;;
8622;SDS011;4349;47.552;8.904;2023-05-16T02:01:05;7.17;;;6.60;;
8622;SDS011;4349;47.552;8.904;2023-05-16T02:03:32;7.40;;;6.80;;
8622;SDS011;4349;47.552;8.904;2023-05-16T02:06:00;7.00;;;6.50;;
8622;SDS011;4349;47.552;8.904;2023-05-16T02:08:28;7.00;;;6.50;;
8622;SDS011;4349;47.552;8.904;2023-05-16T02:10:55;6.20;;;5.80;;
8622;SDS011;4349;47.552;8.904;2023-05-16T02:13:22;6.53;;;5.93;;
8622;SDS011;4349;47.552;8.904;2023-05-16T02:15:50;6.40;;;6.00;;
8622;SDS011;4349;47.552;8.904;2023-05-16T02:18:19;6.60;;;6.03;;
8622;SDS011;4349;47.552;8.904;2023-05-16T02:20:49;7.43;;;6.70;;
8622;SDS011;4349;47.552;8.904;2023-05-16T02:23:16;7.73;;;6.83;;
8622;SDS011;4349;47.552;8.904;2023-05-16T02:25:43;6.87;;;6.37;;
8622;SDS011;4349;47.552;8.904;2023-05-16T02:28:11;6.93;;;6.43;;
8622;SDS011;4349;47.552;8.904;2023-05-16T02:30:38;7.17;;;6.60;;
8622;SDS011;4349;47.552;8.904;2023-05-16T02:33:06;6.90;;;6.37;;
8622;SDS011;4349;47.552;8.904;2023-05-16T02:35:35;7.93;;;7.33;;
8622;SDS011;4349;47.552;8.904;2023-05-16T02:38:03;7.40;;;6.80;;
8622;SDS011;4349;47.552;8.904;2023-05-16T02:40:30;7.67;;;7.10;;
8622;SDS011;4349;47.552;8.904;2023-05-16T02:42:58;7.53;;;7.00;;
8622;SDS011;4349;47.552;8.904;2023-05-16T02:45:25;8.23;;;7.37;;
8622;SDS011;4349;47.552;8.904;2023-05-16T02:47:54;8.03;;;7.23;;
8622;SDS011;4349;47.552;8.904;2023-05-16T02:50:21;8.20;;;7.53;;
8622;SDS011;4349;47.552;8.904;2023-05-16T02:52:50;8.00;;;7.40;;
8622;SDS011;4349;47.552;8.904;2023-05-16T02:55:17;7.90;;;7.30;;
8622;SDS011;4349;47.552;8.904;2023-05-16T02:57:48;7.47;;;6.93;;
8622;SDS011;4349;47.552;8.904;2023-05-16T03:00:16;7.53;;;7.00;;
8622;SDS011;4349;47.552;8.904;2023-05-16T03:02:44;7.10;;;6.60;;
8622;SDS011;4349;47.552;8.904;2023-05-16T03:05:12;7.60;;;7.10;;
8622;SDS011;4349;47.552;8.904;2023-05-16T03:07:39;7.43;;;6.83;;
8622;SDS011;4349;47.552;8.904;2023-05-16T03:10:08;7.93;;;7.20;;
8622;SDS011;4349;47.552;8.904;2023-05-16T03:12:37;7.50;;;6.90;;
8622;SDS011;4349;47.552;8.904;2023-05-16T03:15:05;8.33;;;7.73;;
8622;SDS011;4349;47.552;8.904;2023-05-16T03:17:35;8.57;;;7.87;;
8622;SDS011;4349;47.552;8.904;2023-05-16T03:20:02;8.47;;;7.67;;
8622;SDS011;4349;47.552;8.904;2023-05-16T03:22:30;8.33;;;7.73;;
8622;SDS011;4349;47.552;8.904;2023-05-16T03:24:57;8.20;;;7.60;;
8622;SDS011;4349;47.552;8.904;2023-05-16T03:27:27;8.60;;;7.90;;
8622;SDS011;4349;47.552;8.904;2023-05-16T03:29:54;8.60;;;7.80;;
8622;SDS011;4349;47.552;8.904;2023-05-16T03:32:22;8.07;;;7.37;;
8622;SDS011;4349;47.552;8.904;2023-05-16T03:34:49;9.30;;;8.43;;
8622;SDS011;4349;47.552;8.904;2023-05-16T03:37:17;8.57;;;7.77;;
8622;SDS011;4349;47.552;8.904;2023-05-16T03:39:44;8.50;;;7.80;;
8622;SDS011;4349;47.552;8.904;2023-05-16T03:42:12;9.93;;;9.07;;
8622;SDS011;4349;47.552;8.904;2023-05-16T03:44:41;8.83;;;7.97;;
8622;SDS011;4349;47.552;8.904;2023-05-16T03:47:08;9.27;;;8.43;;
8622;SDS011;4349;47.552;8.904;2023-05-16T03:49:36;9.10;;;8.30;;
8622;SDS011;4349;47.552;8.904;2023-05-16T03:52:03;8.77;;;8.07;;
8622;SDS011;4349;47.552;8.904;2023-05-16T03:54:31;8.13;;;7.53;;
8622;SDS011;4349;47.552;8.904;2023-05-16T03:56:58;9.17;;;8.40;;
8622;SDS011;4349;47.552;8.904;2023-05-16T03:59:26;8.37;;;7.67;;
8622;SDS011;4349;47.552;8.904;2023-05-16T04:01:55;8.70;;;7.70;;
8622;SDS011;4349;47.552;8.904;2023-05-16T04:04:23;8.57;;;7.87;;
8622;SDS011;4349;47.552;8.904;2023-05-16T04:06:51;8.87;;;8.07;;
8622;SDS011;4349;47.552;8.904;2023-05-16T04:09:18;6.80;;;6.30;;
8622;SDS011;4349;47.552;8.904;2023-05-16T04:11:46;7.00;;;6.50;;
8622;SDS011;4349;47.552;8.904;2023-05-16T04:14:13;6.90;;;6.40;;
8622;SDS011;4349;47.552;8.904;2023-05-16T04:16:41;7.77;;;7.07;;
8622;SDS011;4349;47.552;8.904;2023-05-16T04:19:10;7.90;;;7.10;;
8622;SDS011;4349;47.552;8.904;2023-05-16T04:21:37;8.17;;;7.47;;
8622;SDS011;4349;47.552;8.904;2023-05-16T04:24:05;8.67;;;7.97;;
8622;SDS011;4349;47.552;8.904;2023-05-16T04:26:33;9.70;;;8.37;;
8622;SDS011;4349;47.552;8.904;2023-05-16T04:29:00;8.33;;;7.53;;
8622;SDS011;4349;47.552;8.904;2023-05-16T04:31:28;8.80;;;8.10;;
8622;SDS011;4349;47.552;8.904;2023-05-16T04:33:56;8.90;;;8.03;;
8622;SDS011;4349;47.552;8.904;2023-05-16T04:36:25;8.73;;;7.93;;
8622;SDS011;4349;47.552;8.904;2023-05-16T04:38:55;9.63;;;8.90;;
8622;SDS011;4349;47.552;8.904;2023-05-16T04:41:22;11.17;;;10.07;;
8622;SDS011;4349;47.552;8.904;2023-05-16T04:43:50;10.70;;;9.83;;
8622;SDS011;4349;47.552;8.904;2023-05-16T04:46:18;11.03;;;10.03;;
8622;SDS011;4349;47.552;8.904;2023-05-16T04:48:47;11.10;;;10.07;;
8622;SDS011;4349;47.552;8.904;2023-05-16T04:51:14;10.93;;;9.83;;
8622;SDS011;4349;47.552;8.904;2023-05-16T04:53:43;11.80;;;10.70;;
8622;SDS011;4349;47.552;8.904;2023-05-16T04:56:10;11.87;;;10.77;;
8622;SDS011;4349;47.552;8.904;2023-05-16T04:58:38;12.47;;;11.37;;
8622;SDS011;4349;47.552;8.904;2023-05-16T05:01:08;13.07;;;11.77;;
8622;SDS011;4349;47.552;8.904;2023-05-16T05:03:35;11.77;;;10.63;;
8622;SDS011;4349;47.552;8.904;2023-05-16T05:06:03;11.27;;;10.23;;
8622;SDS011;4349;47.552;8.904;2023-05-16T05:08:30;10.40;;;9.40;;
8622;SDS011;4349;47.552;8.904;2023-05-16T05:10:59;10.03;;;9.23;;
8622;SDS011;4349;47.552;8.904;2023-05-16T05:13:27;9.90;;;9.00;;
8622;SDS011;4349;47.552;8.904;2023-05-16T05:15:54;9.77;;;8.97;;
8622;SDS011;4349;47.552;8.904;2023-05-16T05:18:21;10.10;;;9.20;;
8622;SDS011;4349;47.552;8.904;2023-05-16T05:20:49;11.13;;;10.13;;
8622;SDS011;4349;47.552;8.904;2023-05-16T05:23:17;10.60;;;9.70;;
8622;SDS011;4349;47.552;8.904;2023-05-16T05:25:45;11.47;;;10.37;;
8622;SDS011;4349;47.552;8.904;2023-05-16T05:28:14;12.60;;;10.90;;
8622;SDS011;4349;47.552;8.904;2023-05-16T05:30:42;11.77;;;10.57;;
8622;SDS011;4349;47.552;8.904;2023-05-16T05:33:09;10.93;;;10.00;;
8622;SDS011;4349;47.552;8.904;2023-05-16T05:35:37;10.80;;;9.80;;
8622;SDS011;4349;47.552;8.904;2023-05-16T05:38:05;10.27;;;9.37;;
8622;SDS011;4349;47.552;8.904;2023-05-16T05:40:32;10.13;;;9.03;;
8622;SDS011;4349;47.552;8.904;2023-05-16T05:43:00;11.13;;;10.03;;
8622;SDS011;4349;47.552;8.904;2023-05-16T05:45:28;11.00;;;9.90;;
8622;SDS011;4349;47.552;8.904;2023-05-16T05:47:56;10.60;;;9.77;;
8622;SDS011;4349;47.552;8.904;2023-05-16T05:50:24;11.00;;;10.00;;
8622;SDS011;4349;47.552;8.904;2023-05-16T05:52:51;10.97;;;10.07;;
8622;SDS011;4349;47.552;8.904;2023-05-16T05:55:18;10.40;;;9.40;;
8622;SDS011;4349;47.552;8.904;2023-05-16T05:57:46;10.77;;;9.77;;
8622;SDS011;4349;47.552;8.904;2023-05-16T06:00:14;10.10;;;9.17;;
8622;SDS011;4349;47.552;8.904;2023-05-16T06:02:42;10.13;;;9.20;;
8622;SDS011;4349;47.552;8.904;2023-05-16T06:05:10;10.77;;;9.77;;
8622;SDS011;4349;47.552;8.904;2023-05-16T06:07:38;11.23;;;9.50;;
8622;SDS011;4349;47.552;8.904;2023-05-16T06:10:05;9.13;;;8.33;;
8622;SDS011;4349;47.552;8.904;2023-05-16T06:12:33;9.90;;;9.00;;
8622;SDS011;4349;47.552;8.904;2023-05-16T06:15:01;10.57;;;9.67;;
8622;SDS011;4349;47.552;8.904;2023-05-16T06:17:28;9.17;;;8.37;;
8622;SDS011;4349;47.552;8.904;2023-05-16T06:19:57;9.57;;;8.77;;
8622;SDS011;4349;47.552;8.904;2023-05-16T06:22:25;8.93;;;8.23;;
8622;SDS011;4349;47.552;8.904;2023-05-16T06:24:53;9.13;;;8.33;;
8622;SDS011;4349;47.552;8.904;2023-05-16T06:27:20;9.50;;;8.50;;
8622;SDS011;4349;47.552;8.904;2023-05-16T06:29:48;8.40;;;7.70;;
8622;SDS011;4349;47.552;8.904;2023-05-16T06:32:15;9.07;;;8.27;;
8622;SDS011;4349;47.552;8.904;2023-05-16T06:34:43;10.30;;;9.27;;
8622;SDS011;4349;47.552;8.904;2023-05-16T06:37:12;10.27;;;9.27;;
8622;SDS011;4349;47.552;8.904;2023-05-16T06:39:39;10.33;;;9.53;;
8622;SDS011;4349;47.552;8.904;2023-05-16T06:42:06;9.90;;;8.90;;
8622;SDS011;4349;47.552;8.904;2023-05-16T06:44:36;12.80;;;9.83;;
8622;SDS011;4349;47.552;8.904;2023-05-16T06:47:03;11.43;;;10.30;;
8622;SDS011;4349;47.552;8.904;2023-05-16T06:49:31;11.50;;;10.40;;
8622;SDS011;4349;47.552;8.904;2023-05-16T06:51:59;11.40;;;10.33;;
8622;SDS011;4349;47.552;8.904;2023-05-16T06:54:28;11.97;;;10.87;;
8622;SDS011;4349;47.552;8.904;2023-05-16T06:56:55;12.73;;;11.53;;
8622;SDS011;4349;47.552;8.904;2023-05-16T06:59:23;12.47;;;11.27;;
8622;SDS011;4349;47.552;8.904;2023-05-16T07:01:53;12.13;;;10.77;;
8622;SDS011;4349;47.552;8.904;2023-05-16T07:04:20;12.83;;;11.60;;
8622;SDS011;4349;47.552;8.904;2023-05-16T07:06:48;13.27;;;11.97;;
8622;SDS011;4349;47.552;8.904;2023-05-16T07:09:15;12.60;;;11.40;;
8622;SDS011;4349;47.552;8.904;2023-05-16T07:11:44;12.80;;;11.60;;
8622;SDS011;4349;47.552;8.904;2023-05-16T07:14:12;12.70;;;11.50;;
8622;SDS011;4349;47.552;8.904;2023-05-16T07:16:39;12.03;;;10.90;;
8622;SDS011;4349;47.552;8.904;2023-05-16T07:19:07;12.13;;;11.07;;
8622;SDS011;4349;47.552;8.904;2023-05-16T07:21:34;12.70;;;11.50;;
8622;SDS011;4349;47.552;8.904;2023-05-16T07:24:02;12.73;;;11.43;;
8622;SDS011;4349;47.552;8.904;2023-05-16T07:26:30;13.77;;;12.37;;
8622;SDS011;4349;47.552;8.904;2023-05-16T07:28:58;14.10;;;12.60;;
8622;SDS011;4349;47.552;8.904;2023-05-16T07:31:27;14.30;;;12.80;;
8622;SDS011;4349;47.552;8.904;2023-05-16T07:33:56;15.93;;;13.03;;
8622;SDS011;4349;47.552;8.904;2023-05-16T07:36:23;16.43;;;14.73;;
8622;SDS011;4349;47.552;8.904;2023-05-16T07:38:51;16.80;;;14.37;;
8622;SDS011;4349;47.552;8.904;2023-05-16T07:41:18;17.47;;;15.67;;
8622;SDS011;4349;47.552;8.904;2023-05-16T07:43:46;17.37;;;14.80;;
8622;SDS011;4349;47.552;8.904;2023-05-16T07:46:15;19.30;;;16.07;;
8622;SDS011;4349;47.552;8.904;2023-05-16T07:48:43;19.17;;;15.27;;
8622;SDS011;4349;47.552;8.904;2023-05-16T07:51:10;17.07;;;15.27;;
8622;SDS011;4349;47.552;8.904;2023-05-16T07:53:38;17.70;;;15.43;;
8622;SDS011;4349;47.552;8.904;2023-05-16T07:56:06;17.77;;;15.53;;
8622;SDS011;4349;47.552;8.904;2023-05-16T07:58:34;20.70;;;15.70;;
8622;SDS011;4349;47.552;8.904;2023-05-16T08:01:01;18.00;;;15.13;;
8622;SDS011;4349;47.552;8.904;2023-05-16T08:03:30;17.13;;;15.00;;
8622;SDS011;4349;47.552;8.904;2023-05-16T08:05:58;17.47;;;15.43;;
8622;SDS011;4349;47.552;8.904;2023-05-16T08:08:26;17.63;;;15.17;;
8622;SDS011;4349;47.552;8.904;2023-05-16T08:10:53;18.17;;;16.27;;
8622;SDS011;4349;47.552;8.904;2023-05-16T08:13:21;17.50;;;15.60;;
8622;SDS011;4349;47.552;8.904;2023-05-16T08:15:48;17.80;;;15.60;;
8622;SDS011;4349;47.552;8.904;2023-05-16T08:18:16;17.70;;;15.90;;
8622;SDS011;4349;47.552;8.904;2023-05-16T08:20:48;17.10;;;15.30;;
8622;SDS011;4349;47.552;8.904;2023-05-16T08:23:16;17.43;;;15.63;;
8622;SDS011;4349;47.552;8.904;2023-05-16T08:25:43;22.03;;;16.07;;
8622;SDS011;4349;47.552;8.904;2023-05-16T08:28:11;17.13;;;15.27;;
8622;SDS011;4349;47.552;8.904;2023-05-16T08:30:39;17.87;;;15.97;;
8622;SDS011;4349;47.552;8.904;2023-05-16T08:33:08;17.17;;;15.33;;
8622;SDS011;4349;47.552;8.904;2023-05-16T08:35:36;18.50;;;15.37;;
8622;SDS011;4349;47.552;8.904;2023-05-16T08:38:05;17.47;;;15.73;;
8622;SDS011;4349;47.552;8.904;2023-05-16T08:40:32;31.93;;;16.23;;
8622;SDS011;4349;47.552;8.904;2023-05-16T08:43:00;17.47;;;15.57;;
8622;SDS011;4349;47.552;8.904;2023-05-16T08:45:27;17.00;;;14.63;;
8622;SDS011;4349;47.552;8.904;2023-05-16T08:47:56;17.30;;;15.40;;
8622;SDS011;4349;47.552;8.904;2023-05-16T08:50:27;16.50;;;14.73;;
8622;SDS011;4349;47.552;8.904;2023-05-16T08:52:56;16.67;;;14.83;;
8622;SDS011;4349;47.552;8.904;2023-05-16T08:55:25;16.83;;;14.70;;
8622;SDS011;4349;47.552;8.904;2023-05-16T08:57:53;20.67;;;15.83;;
8622;SDS011;4349;47.552;8.904;2023-05-16T09:00:21;17.90;;;14.77;;
8622;SDS011;4349;47.552;8.904;2023-05-16T09:02:48;15.63;;;14.03;;
8622;SDS011;4349;47.552;8.904;2023-05-16T09:05:16;15.53;;;14.03;;
8622;SDS011;4349;47.552;8.904;2023-05-16T09:07:44;16.97;;;13.97;;
8622;SDS011;4349;47.552;8.904;2023-05-16T09:10:12;15.07;;;13.50;;
8622;SDS011;4349;47.552;8.904;2023-05-16T09:12:41;15.93;;;14.23;;
8622;SDS011;4349;47.552;8.904;2023-05-16T09:15:09;17.70;;;14.70;;
8622;SDS011;4349;47.552;8.904;2023-05-16T09:17:37;15.67;;;14.03;;
8622;SDS011;4349;47.552;8.904;2023-05-16T09:20:08;16.57;;;13.83;;
8622;SDS011;4349;47.552;8.904;2023-05-16T09:22:36;16.27;;;14.00;;
8622;SDS011;4349;47.552;8.904;2023-05-16T09:25:04;17.33;;;15.50;;
8622;SDS011;4349;47.552;8.904;2023-05-16T09:27:38;15.40;;;13.87;;
8622;SDS011;4349;47.552;8.904;2023-05-16T09:30:09;16.30;;;14.60;;
8622;SDS011;4349;47.552;8.904;2023-05-16T09:32:36;18.10;;;14.67;;
8622;SDS011;4349;47.552;8.904;2023-05-16T09:35:09;16.27;;;14.33;;
8622;SDS011;4349;47.552;8.904;2023-05-16T09:37:37;15.50;;;13.90;;
8622;SDS011;4349;47.552;8.904;2023-05-16T09:40:10;16.97;;;14.50;;
8622;SDS011;4349;47.552;8.904;2023-05-16T09:42:38;16.07;;;14.37;;
8622;SDS011;4349;47.552;8.904;2023-05-16T09:45:05;15.70;;;14.03;;
8622;SDS011;4349;47.552;8.904;2023-05-16T09:47:34;15.43;;;13.87;;
8622;SDS011;4349;47.552;8.904;2023-05-16T09:50:03;17.10;;;14.27;;
8622;SDS011;4349;47.552;8.904;2023-05-16T09:52:33;14.40;;;13.10;;
8622;SDS011;4349;47.552;8.904;2023-05-16T09:55:01;15.67;;;14.03;;
8622;SDS011;4349;47.552;8.904;2023-05-16T09:57:30;15.33;;;13.73;;
8622;SDS011;4349;47.552;8.904;2023-05-16T09:59:58;17.27;;;14.37;;
8622;SDS011;4349;47.552;8.904;2023-05-16T10:02:26;18.40;;;16.40;;
8622;SDS011;4349;47.552;8.904;2023-05-16T10:04:55;18.40;;;16.53;;
8622;SDS011;4349;47.552;8.904;2023-05-16T10:07:23;18.83;;;16.80;;
8622;SDS011;4349;47.552;8.904;2023-05-16T10:09:50;18.83;;;16.83;;
8622;SDS011;4349;47.552;8.904;2023-05-16T10:12:19;19.93;;;17.57;;
8622;SDS011;4349;47.552;8.904;2023-05-16T10:14:49;19.03;;;17.03;;
8622;SDS011;4349;47.552;8.904;2023-05-16T10:17:17;21.40;;;18.97;;
8622;SDS011;4349;47.552;8.904;2023-05-16T10:19:45;21.23;;;19.03;;
8622;SDS011;4349;47.552;8.904;2023-05-16T10:22:14;22.17;;;18.53;;
8622;SDS011;4349;47.552;8.904;2023-05-16T10:24:43;20.93;;;18.73;;
8622;SDS011;4349;47.552;8.904;2023-05-16T10:27:13;21.70;;;19.30;;
8622;SDS011;4349;47.552;8.904;2023-05-16T10:29:44;19.93;;;17.90;;
8622;SDS011;4349;47.552;8.904;2023-05-16T10:32:21;18.53;;;16.60;;
8622;SDS011;4349;47.552;8.904;2023-05-16T10:34:49;19.03;;;16.97;;
8622;SDS011;4349;47.552;8.904;2023-05-16T10:37:19;17.23;;;15.47;;
8622;SDS011;4349;47.552;8.904;2023-05-16T10:39:46;19.73;;;17.10;;
8622;SDS011;4349;47.552;8.904;2023-05-16T10:42:14;20.07;;;17.27;;
8622;SDS011;4349;47.552;8.904;2023-05-16T10:44:43;20.83;;;17.90;;
8622;SDS011;4349;47.552;8.904;2023-05-16T10:47:20;19.17;;;17.13;;
8622;SDS011;4349;47.552;8.904;2023-05-16T10:49:47;19.33;;;17.30;;
8622;SDS011;4349;47.552;8.904;2023-05-16T10:52:15;21.87;;;19.10;;
8622;SDS011;4349;47.552;8.904;2023-05-16T10:54:49;21.90;;;18.73;;
8622;SDS011;4349;47.552;8.904;2023-05-16T10:57:18;19.33;;;17.40;;
8622;SDS011;4349;47.552;8.904;2023-05-16T10:59:47;20.33;;;18.20;;
8622;SDS011;4349;47.552;8.904;2023-05-16T11:02:22;19.60;;;17.50;;
8622;SDS011;4349;47.552;8.904;2023-05-16T11:04:50;21.93;;;17.87;;
8622;SDS011;4349;47.552;8.904;2023-05-16T11:07:18;19.73;;;17.63;;
8622;SDS011;4349;47.552;8.904;2023-05-16T11:10:00;19.70;;;17.60;;
8622;SDS011;4349;47.552;8.904;2023-05-16T11:12:35;22.07;;;19.00;;
8622;SDS011;4349;47.552;8.904;2023-05-16T11:15:16;20.73;;;17.90;;
8622;SDS011;4349;47.552;8.904;2023-05-16T11:17:44;19.93;;;16.90;;
8622;SDS011;4349;47.552;8.904;2023-05-16T11:20:23;20.27;;;18.10;;
8622;SDS011;4349;47.552;8.904;2023-05-16T11:22:51;21.17;;;18.87;;
8622;SDS011;4349;47.552;8.904;2023-05-16T11:25:39;24.00;;;20.40;;
8622;SDS011;4349;47.552;8.904;2023-05-16T11:28:08;22.77;;;20.13;;
8622;SDS011;4349;47.552;8.904;2023-05-16T11:30:36;20.90;;;18.53;;
8622;SDS011;4349;47.552;8.904;2023-05-16T11:33:07;21.63;;;18.73;;
8622;SDS011;4349;47.552;8.904;2023-05-16T11:35:35;21.43;;;18.43;;
8622;SDS011;4349;47.552;8.904;2023-05-16T11:38:03;21.60;;;19.27;;
8622;SDS011;4349;47.552;8.904;2023-05-16T11:40:31;23.03;;;19.00;;
8622;SDS011;4349;47.552;8.904;2023-05-16T11:42:59;18.80;;;16.87;;
8622;SDS011;4349;47.552;8.904;2023-05-16T11:45:31;19.43;;;16.47;;
8622;SDS011;4349;47.552;8.904;2023-05-16T11:48:00;17.93;;;16.13;;
8622;SDS011;4349;47.552;8.904;2023-05-16T11:50:29;17.70;;;15.80;;
8622;SDS011;4349;47.552;8.904;2023-05-16T11:52:57;17.93;;;15.77;;
8622;SDS011;4349;47.552;8.904;2023-05-16T11:55:25;21.47;;;14.93;;
8622;SDS011;4349;47.552;8.904;2023-05-16T11:58:09;18.33;;;15.47;;
8622;SDS011;4349;47.552;8.904;2023-05-16T12:00:43;17.50;;;15.47;;
8622;SDS011;4349;47.552;8.904;2023-05-16T12:03:13;16.67;;;14.80;;
8622;SDS011;4349;47.552;8.904;2023-05-16T12:05:48;16.57;;;14.73;;
8622;SDS011;4349;47.552;8.904;2023-05-16T12:08:16;17.53;;;15.07;;
8622;SDS011;4349;47.552;8.904;2023-05-16T12:10:44;20.50;;;16.10;;
8622;SDS011;4349;47.552;8.904;2023-05-16T12:13:12;17.90;;;16.00;;
8622;SDS011;4349;47.552;8.904;2023-05-16T12:15:40;17.03;;;15.23;;
8622;SDS011;4349;47.552;8.904;2023-05-16T12:18:08;16.70;;;14.77;;
8622;SDS011;4349;47.552;8.904;2023-05-16T12:20:35;17.33;;;15.17;;
8622;SDS011;4349;47.552;8.904;2023-05-16T12:23:03;17.47;;;14.43;;
8622;SDS011;4349;47.552;8.904;2023-05-16T12:25:34;15.30;;;13.80;;
8622;SDS011;4349;47.552;8.904;2023-05-16T12:28:03;15.67;;;14.07;;
8622;SDS011;4349;47.552;8.904;2023-05-16T12:30:34;15.67;;;13.90;;
8622;SDS011;4349;47.552;8.904;2023-05-16T12:33:02;15.60;;;14.00;;
8622;SDS011;4349;47.552;8.904;2023-05-16T12:35:34;16.37;;;12.53;;
8622;SDS011;4349;47.552;8.904;2023-05-16T12:38:02;12.53;;;11.33;;
8622;SDS011;4349;47.552;8.904;2023-05-16T12:40:30;11.43;;;10.37;;
8622;SDS011;4349;47.552;8.904;2023-05-16T12:42:57;10.60;;;9.60;;
8622;SDS011;4349;47.552;8.904;2023-05-16T12:45:27;12.90;;;9.70;;
8622;SDS011;4349;47.552;8.904;2023-05-16T12:47:56;10.33;;;9.40;;
8622;SDS011;4349;47.552;8.904;2023-05-16T12:50:25;10.70;;;9.70;;
8622;SDS011;4349;47.552;8.904;2023-05-16T12:52:57;10.37;;;9.47;;
8622;SDS011;4349;47.552;8.904;2023-05-16T12:55:26;10.23;;;9.33;;
8622;SDS011;4349;47.552;8.904;2023-05-16T12:57:54;9.80;;;9.00;;
8622;SDS011;4349;47.552;8.904;2023-05-16T13:00:22;9.60;;;8.70;;
8622;SDS011;4349;47.552;8.904;2023-05-16T13:02:49;9.53;;;8.73;;
8622;SDS011;4349;47.552;8.904;2023-05-16T13:05:19;9.60;;;8.70;;
8622;SDS011;4349;47.552;8.904;2023-05-16T13:07:48;9.77;;;8.97;;
8622;SDS011;4349;47.552;8.904;2023-05-16T13:10:16;9.43;;;8.53;;
8622;SDS011;4349;47.552;8.904;2023-05-16T13:12:44;9.20;;;8.30;;
8622;SDS011;4349;47.552;8.904;2023-05-16T13:15:12;9.83;;;8.93;;
8622;SDS011;4349;47.552;8.904;2023-05-16T13:17:40;8.50;;;7.80;;
8622;SDS011;4349;47.552;8.904;2023-05-16T13:20:09;8.50;;;7.80;;
8622;SDS011;4349;47.552;8.904;2023-05-16T13:22:40;8.13;;;7.53;;
8622;SDS011;4349;47.552;8.904;2023-05-16T13:25:08;8.30;;;7.60;;
8622;SDS011;4349;47.552;8.904;2023-05-16T13:27:36;7.90;;;7.30;;
8622;SDS011;4349;47.552;8.904;2023-05-16T13:30:04;7.70;;;7.10;;
8622;SDS011;4349;47.552;8.904;2023-05-16T13:32:31;8.00;;;7.47;;
8622;SDS011;4349;47.552;8.904;2023-05-16T13:34:59;8.80;;;8.00;;
8622;SDS011;4349;47.552;8.904;2023-05-16T13:37:26;9.03;;;8.13;;
8622;SDS011;4349;47.552;8.904;2023-05-16T13:39:55;8.83;;;8.13;;
8622;SDS011;4349;47.552;8.904;2023-05-16T13:42:23;8.87;;;8.17;;
8622;SDS011;4349;47.552;8.904;2023-05-16T13:44:50;9.17;;;8.47;;
8622;SDS011;4349;47.552;8.904;2023-05-16T13:47:18;10.07;;;9.17;;
8622;SDS011;4349;47.552;8.904;2023-05-16T13:49:46;9.50;;;8.60;;
8622;SDS011;4349;47.552;8.904;2023-05-16T13:52:14;10.30;;;9.40;;
8622;SDS011;4349;47.552;8.904;2023-05-16T13:54:41;9.80;;;8.87;;
8622;SDS011;4349;47.552;8.904;2023-05-16T13:57:10;10.70;;;9.60;;
8622;SDS011;4349;47.552;8.904;2023-05-16T13:59:38;11.20;;;10.07;;
8622;SDS011;4349;47.552;8.904;2023-05-16T14:02:08;11.47;;;10.23;;
8622;SDS011;4349;47.552;8.904;2023-05-16T14:04:35;12.47;;;9.97;;
8622;SDS011;4349;47.552;8.904;2023-05-16T14:07:03;10.83;;;9.73;;
8622;SDS011;4349;47.552;8.904;2023-05-16T14:09:31;11.97;;;10.80;;
8622;SDS011;4349;47.552;8.904;2023-05-16T14:12:00;12.17;;;10.87;;
8622;SDS011;4349;47.552;8.904;2023-05-16T14:14:30;11.97;;;10.80;;
8622;SDS011;4349;47.552;8.904;2023-05-16T14:16:58;12.23;;;11.03;;
8622;SDS011;4349;47.552;8.904;2023-05-16T14:19:25;13.17;;;11.10;;
8622;SDS011;4349;47.552;8.904;2023-05-16T14:21:53;11.40;;;10.30;;
8622;SDS011;4349;47.552;8.904;2023-05-16T14:24:21;12.40;;;11.10;;
8622;SDS011;4349;47.552;8.904;2023-05-16T14:26:49;12.20;;;10.93;;
8622;SDS011;4349;47.552;8.904;2023-05-16T14:29:22;11.90;;;10.77;;
8622;SDS011;4349;47.552;8.904;2023-05-16T14:31:52;12.43;;;11.23;;
8622;SDS011;4349;47.552;8.904;2023-05-16T14:34:19;13.07;;;11.70;;
8622;SDS011;4349;47.552;8.904;2023-05-16T14:36:48;12.33;;;10.77;;
8622;SDS011;4349;47.552;8.904;2023-05-16T14:39:16;10.37;;;9.37;;
8622;SDS011;4349;47.552;8.904;2023-05-16T14:41:43;10.60;;;8.17;;
8622;SDS011;4349;47.552;8.904;2023-05-16T14:44:11;8.97;;;8.10;;
8622;SDS011;4349;47.552;8.904;2023-05-16T14:46:39;8.30;;;7.70;;
8622;SDS011;4349;47.552;8.904;2023-05-16T14:49:08;7.80;;;7.20;;
8622;SDS011;4349;47.552;8.904;2023-05-16T14:51:36;7.90;;;7.30;;
8622;SDS011;4349;47.552;8.904;2023-05-16T14:54:03;7.57;;;6.80;;
8622;SDS011;4349;47.552;8.904;2023-05-16T14:56:31;8.13;;;7.33;;
8622;SDS011;4349;47.552;8.904;2023-05-16T14:58:58;6.30;;;5.87;;
8622;SDS011;4349;47.552;8.904;2023-05-16T15:01:26;6.47;;;5.87;;
8622;SDS011;4349;47.552;8.904;2023-05-16T15:03:54;5.67;;;5.17;;
8622;SDS011;4349;47.552;8.904;2023-05-16T15:06:23;5.90;;;5.50;;
8622;SDS011;4349;47.552;8.904;2023-05-16T15:08:51;5.70;;;5.30;;